Time;durP1;ratioP1;P1;durP2;ratioP2;P2;SDS_P1;SDS_P2;PMS_P1;PMS_P2;Temp;Humidity;BMP_temperature;BMP_pressure;BME280_temperature;BME280_humidity;BME280_pressure;Samples;Min_cycle;Max_cycle;Signal;HPM_P1;HPM_P2
2021/04/22 00:02:23;;;;;;;;;;;8.50;98.80;;;;;;5045628;28;20011;-71
2021/04/22 00:04:48;;;;;;;;;;;8.40;98.10;;;;;;5046826;28;19916;-71
2021/04/22 00:07:17;;;;;;;;;;;8.40;98.10;;;;;;5046944;28;19939;-70
2021/04/22 00:09:46;;;;;;;;;;;8.30;97.50;;;;;;5045445;28;19912;-71
2021/04/22 00:12:11;;;;;;;;;;;8.30;97.30;;;;;;5046154;28;19931;-71
2021/04/22 00:14:37;;;;;;;;;;;8.30;97.10;;;;;;5046058;28;19917;-70
2021/04/22 00:17:09;;;;;;;;;;;8.20;96.70;;;;;;5047155;28;19916;-71
2021/04/22 00:19:37;;;;;;;;;;;8.20;96.90;;;;;;5013925;28;19920;-71
2021/04/22 00:22:03;;;;;;;;;;;8.10;97.70;;;;;;5046660;28;19932;-71
2021/04/22 00:24:28;;;;;;;;;;;8.10;98.40;;;;;;5027973;28;21679;-70
2021/04/22 00:26:54;;;;;;;;;;;8.10;98.70;;;;;;5028275;28;20019;-70
2021/04/22 00:29:21;;;;;;;;;;;8.00;98.80;;;;;;5048076;28;19924;-70
2021/04/22 00:31:49;;;;;;;;;;;8.00;99.10;;;;;;5047320;28;19920;-70
2021/04/22 00:34:15;;;;;;;;;;;7.90;99.10;;;;;;5046803;28;20012;-71
2021/04/22 00:36:40;;;;;;;;;;;7.90;99.20;;;;;;5047595;28;19932;-70
2021/04/22 00:39:08;;;;;;;;;;;8.00;99.80;;;;;;5047008;28;20273;-71
2021/04/22 00:41:34;;;;;;;;;;;7.90;99.80;;;;;;5046996;28;19917;-70
2021/04/22 00:44:00;;;;;;;;;;;7.90;99.90;;;;;;5045864;28;19995;-71
2021/04/22 00:46:28;;;;;;;;;;;7.90;99.90;;;;;;5045838;28;20070;-71
2021/04/22 00:48:54;;;;;;;;;;;7.90;99.90;;;;;;5029537;28;20007;-70
2021/04/22 00:51:19;;;;;;;;;;;7.80;99.90;;;;;;5046506;28;19936;-70
2021/04/22 00:53:44;;;;;;;;;;;7.70;99.90;;;;;;5013278;28;19920;-71
2021/04/22 00:56:10;;;;;;;;;;;7.70;99.90;;;;;;5014670;28;19941;-71
2021/04/22 00:58:38;;;;;;;;;;;7.70;99.90;;;;;;5032742;28;19924;-70
2021/04/22 01:01:08;;;;;;;;;;;7.60;99.90;;;;;;5049298;28;19916;-70
2021/04/22 01:03:34;;;;;;;;;;;7.60;99.90;;;;;;5049736;28;20407;-71
2021/04/22 01:06:03;;;;;;;;;;;7.50;99.90;;;;;;5030643;28;20036;-70
2021/04/22 01:08:28;;;;;;;;;;;7.50;99.90;;;;;;5048637;28;19917;-70
2021/04/22 01:10:54;;;;;;;;;;;7.50;99.90;;;;;;5050305;28;20481;-71
2021/04/22 01:13:20;;;;;;;;;;;7.50;99.90;;;;;;5033574;28;20341;-70
2021/04/22 01:15:45;;;;;;;;;;;7.50;99.90;;;;;;5032280;28;19979;-70
2021/04/22 01:18:15;;;;;;;;;;;7.40;99.90;;;;;;5050777;28;19947;-70
2021/04/22 01:20:45;;;;;;;;;;;7.40;99.90;;;;;;5033376;28;19917;-70
2021/04/22 01:23:13;;;;;;;;;;;7.30;99.90;;;;;;5016637;28;19928;-71
2021/04/22 01:25:44;;;;;;;;;;;7.30;99.90;;;;;;5030267;28;19916;-70
2021/04/22 01:28:13;;;;;;;;;;;7.20;99.90;;;;;;5033029;28;20071;-71
2021/04/22 01:30:39;;;;;;;;;;;7.10;99.90;;;;;;5031187;28;19917;-71
2021/04/22 01:33:07;;;;;;;;;;;7.10;99.90;;;;;;5031398;28;19928;-70
2021/04/22 01:35:33;;;;;;;;;;;7.00;99.90;;;;;;5033917;28;19927;-70
2021/04/22 01:37:59;;;;;;;;;;;7.00;99.90;;;;;;5048974;28;19916;-70
2021/04/22 01:40:25;;;;;;;;;;;6.90;99.90;;;;;;5049653;28;19950;-70
2021/04/22 01:42:50;;;;;;;;;;;6.80;99.90;;;;;;5032619;28;19996;-70
2021/04/22 01:45:16;;;;;;;;;;;6.80;99.90;;;;;;5049429;28;19931;-72
2021/04/22 01:47:42;;;;;;;;;;;6.70;97.60;;;;;;5049460;28;19917;-71
2021/04/22 01:50:08;;;;;;;;;;;6.60;96.50;;;;;;5030888;28;19960;-73
2021/04/22 01:52:37;;;;;;;;;;;6.60;94.20;;;;;;5048365;28;20001;-73
2021/04/22 01:55:03;;;;;;;;;;;6.50;94.20;;;;;;5049521;28;19916;-72
2021/04/22 01:57:28;;;;;;;;;;;6.40;93.90;;;;;;5049069;28;20267;-72
2021/04/22 01:59:54;;;;;;;;;;;6.30;93.40;;;;;;5048172;28;19921;-70
2021/04/22 02:02:19;;;;;;;;;;;6.30;93.30;;;;;;5017181;28;19921;-71
2021/04/22 02:04:45;;;;;;;;;;;6.20;92.60;;;;;;5049222;28;21768;-72
2021/04/22 02:07:11;;;;;;;;;;;6.20;93.50;;;;;;5047922;28;19925;-71
2021/04/22 02:09:37;;;;;;;;;;;6.20;93.70;;;;;;5047609;28;19958;-73
2021/04/22 02:12:03;;;;;;;;;;;6.10;93.00;;;;;;5030263;28;19917;-72
2021/04/22 02:14:30;;;;;;;;;;;6.00;93.30;;;;;;5049826;28;19921;-72
2021/04/22 02:16:56;;;;;;;;;;;6.00;92.80;;;;;;5048679;28;19978;-72
2021/04/22 02:19:24;;;;;;;;;;;5.90;93.80;;;;;;5002567;28;19925;-70
2021/04/22 02:21:49;;;;;;;;;;;5.80;93.20;;;;;;5016364;28;19920;-72
2021/04/22 02:24:16;;;;;;;;;;;5.80;93.20;;;;;;5048787;28;19917;-72
2021/04/22 02:26:41;;;;;;;;;;;5.80;93.70;;;;;;5047529;28;20049;-70
2021/04/22 02:29:07;;;;;;;;;;;5.70;93.40;;;;;;5048501;28;20941;-70
2021/04/22 02:31:32;;;;;;;;;;;5.70;93.00;;;;;;5048003;28;20313;-72
2021/04/22 02:33:58;;;;;;;;;;;5.60;93.50;;;;;;5015797;28;19921;-72
2021/04/22 02:36:23;;;;;;;;;;;5.60;94.80;;;;;;5029960;28;19927;-72
2021/04/22 02:38:49;;;;;;;;;;;5.50;94.30;;;;;;5048178;28;19920;-70
2021/04/22 02:41:17;;;;;;;;;;;5.50;94.30;;;;;;5030373;28;19927;-73
2021/04/22 02:43:42;;;;;;;;;;;5.50;94.90;;;;;;5030367;28;19944;-72
2021/04/22 02:46:08;;;;;;;;;;;5.40;94.90;;;;;;5047887;28;20069;-70
2021/04/22 02:48:33;;;;;;;;;;;5.30;94.70;;;;;;5048128;28;19916;-72
2021/04/22 02:51:00;;;;;;;;;;;5.30;95.00;;;;;;5029119;28;20354;-72
2021/04/22 02:53:26;;;;;;;;;;;5.30;95.60;;;;;;5048473;28;19970;-72
2021/04/22 02:55:51;;;;;;;;;;;5.30;96.10;;;;;;5015236;28;19921;-73
2021/04/22 02:58:17;;;;;;;;;;;5.20;94.80;;;;;;5048059;28;19925;-70
2021/04/22 03:00:45;;;;;;;;;;;5.20;95.20;;;;;;5029828;28;19927;-71
2021/04/22 03:03:11;;;;;;;;;;;5.20;95.40;;;;;;5029456;28;19920;-73
2021/04/22 03:05:37;;;;;;;;;;;5.20;96.00;;;;;;5047640;28;19990;-72
2021/04/22 03:08:04;;;;;;;;;;;5.20;95.70;;;;;;5047985;28;20512;-72
2021/04/22 03:10:29;;;;;;;;;;;5.10;95.80;;;;;;5049162;28;19952;-72
2021/04/22 03:12:55;;;;;;;;;;;5.10;94.80;;;;;;5047847;28;20493;-72
2021/04/22 03:15:20;;;;;;;;;;;5.00;94.60;;;;;;5031064;28;20355;-72
2021/04/22 03:17:46;;;;;;;;;;;5.00;95.20;;;;;;5048049;28;19916;-72
2021/04/22 03:20:12;;;;;;;;;;;5.00;95.30;;;;;;5030355;28;19957;-72
2021/04/22 03:22:38;;;;;;;;;;;4.90;94.80;;;;;;5048036;28;19927;-72
2021/04/22 03:25:04;;;;;;;;;;;4.80;96.10;;;;;;5047527;28;19966;-72
2021/04/22 03:27:29;;;;;;;;;;;4.90;96.10;;;;;;5030453;28;20898;-72
2021/04/22 03:29:55;;;;;;;;;;;4.90;95.10;;;;;;5047511;28;19935;-72
2021/04/22 03:32:20;;;;;;;;;;;4.80;96.70;;;;;;5031176;28;19981;-72
2021/04/22 03:34:46;;;;;;;;;;;4.80;95.20;;;;;;5046943;28;19963;-72
2021/04/22 03:37:12;;;;;;;;;;;4.80;95.70;;;;;;5030282;28;19931;-72
2021/04/22 03:39:40;;;;;;;;;;;4.70;96.30;;;;;;5015386;28;19955;-72
2021/04/22 03:42:06;;;;;;;;;;;4.70;94.70;;;;;;5048323;28;19921;-72
2021/04/22 03:44:31;;;;;;;;;;;4.70;94.20;;;;;;5028918;28;19916;-73
2021/04/22 03:46:59;;;;;;;;;;;4.50;94.20;;;;;;5046807;28;19925;-73
2021/04/22 03:49:26;;;;;;;;;;;4.60;94.90;;;;;;5046294;28;19968;-72
2021/04/22 03:51:54;;;;;;;;;;;4.50;94.00;;;;;;5028563;28;20000;-72
2021/04/22 03:54:20;;;;;;;;;;;4.40;94.30;;;;;;5047157;28;19916;-73
2021/04/22 03:56:45;;;;;;;;;;;4.40;94.30;;;;;;5046461;28;19927;-73
2021/04/22 03:59:11;;;;;;;;;;;4.40;94.20;;;;;;5047243;28;19917;-72
2021/04/22 04:01:37;;;;;;;;;;;4.30;93.30;;;;;;5027128;28;19927;-72
2021/04/22 04:04:02;;;;;;;;;;;4.30;93.50;;;;;;5046126;28;19931;-72
2021/04/22 04:06:28;;;;;;;;;;;4.30;94.10;;;;;;5015310;28;19925;-71
2021/04/22 04:08:53;;;;;;;;;;;4.20;92.30;;;;;;5047061;28;19921;-73
2021/04/22 04:11:19;;;;;;;;;;;4.20;93.10;;;;;;5028843;28;19912;-73
2021/04/22 04:13:44;;;;;;;;;;;4.10;93.00;;;;;;5046609;28;19921;-72
2021/04/22 04:16:10;;;;;;;;;;;4.10;93.90;;;;;;5046708;28;20011;-72
2021/04/22 04:18:35;;;;;;;;;;;4.20;93.60;;;;;;5047877;28;20289;-72
2021/04/22 04:21:01;;;;;;;;;;;4.20;93.60;;;;;;5047198;28;19920;-72
2021/04/22 04:23:26;;;;;;;;;;;4.20;93.60;;;;;;5046862;28;19959;-72
2021/04/22 04:25:52;;;;;;;;;;;4.10;92.80;;;;;;5047017;28;19931;-72
2021/04/22 04:28:17;;;;;;;;;;;4.10;94.00;;;;;;5048127;28;19932;-72
2021/04/22 04:30:43;;;;;;;;;;;4.10;93.80;;;;;;5049993;28;19917;-72
2021/04/22 04:33:08;;;;;;;;;;;3.90;93.30;;;;;;5049768;28;20014;-72
2021/04/22 04:35:34;;;;;;;;;;;4.00;93.60;;;;;;5050609;28;19926;-72
2021/04/22 04:38:02;;;;;;;;;;;4.00;93.20;;;;;;5031421;28;19917;-73
2021/04/22 04:40:27;;;;;;;;;;;4.10;92.60;;;;;;5050641;28;19924;-73
2021/04/22 04:42:54;;;;;;;;;;;4.10;93.90;;;;;;5050475;28;19917;-72
2021/04/22 04:45:19;;;;;;;;;;;4.00;93.60;;;;;;5050532;28;19928;-72
2021/04/22 04:47:45;;;;;;;;;;;3.90;92.50;;;;;;5049938;28;21774;-72
2021/04/22 04:50:13;;;;;;;;;;;3.90;93.20;;;;;;5030362;28;19956;-72
2021/04/22 04:52:39;;;;;;;;;;;3.80;93.30;;;;;;5049481;28;19977;-72
2021/04/22 04:55:05;;;;;;;;;;;3.90;94.10;;;;;;5034259;28;20366;-72
2021/04/22 04:57:30;;;;;;;;;;;3.90;94.10;;;;;;5033142;28;19916;-72
2021/04/22 04:59:56;;;;;;;;;;;3.90;94.50;;;;;;5030657;28;19923;-72
2021/04/22 05:02:22;;;;;;;;;;;4.00;94.40;;;;;;5051369;28;19983;-72
2021/04/22 05:04:47;;;;;;;;;;;4.00;93.00;;;;;;5049285;28;20359;-72
2021/04/22 05:07:15;;;;;;;;;;;4.00;93.40;;;;;;5032448;28;19976;-71
2021/04/22 05:09:43;;;;;;;;;;;3.90;94.10;;;;;;5050010;28;19956;-72
2021/04/22 05:12:09;;;;;;;;;;;3.90;93.70;;;;;;5050225;28;19916;-72
2021/04/22 05:14:37;;;;;;;;;;;4.00;93.80;;;;;;5050671;28;19955;-72
2021/04/22 05:17:03;;;;;;;;;;;4.00;92.90;;;;;;5030691;28;19932;-73
2021/04/22 05:19:28;;;;;;;;;;;4.00;93.20;;;;;;5032735;28;21735;-72
2021/04/22 05:21:53;;;;;;;;;;;4.00;92.80;;;;;;5049617;28;20328;-72
2021/04/22 05:24:19;;;;;;;;;;;4.00;93.20;;;;;;5051041;28;19921;-72
2021/04/22 05:26:47;;;;;;;;;;;4.00;94.60;;;;;;5028869;28;19977;-72
2021/04/22 05:29:12;;;;;;;;;;;3.90;93.00;;;;;;5050339;28;19959;-72
2021/04/22 05:31:38;;;;;;;;;;;4.00;93.80;;;;;;5017083;28;20421;-73
2021/04/22 05:34:03;;;;;;;;;;;4.00;93.80;;;;;;5029741;28;19926;-72
2021/04/22 05:36:29;;;;;;;;;;;4.00;93.90;;;;;;5050107;28;19951;-72
2021/04/22 05:38:54;;;;;;;;;;;4.00;93.70;;;;;;5049344;28;19924;-72
2021/04/22 05:41:22;;;;;;;;;;;4.10;94.10;;;;;;5050573;28;19916;-72
2021/04/22 05:43:48;;;;;;;;;;;4.00;93.10;;;;;;5049508;28;19970;-72
2021/04/22 05:46:19;;;;;;;;;;;3.90;92.80;;;;;;5049003;28;19916;-72
2021/04/22 05:48:45;;;;;;;;;;;3.90;92.40;;;;;;5050412;28;19917;-72
2021/04/22 05:51:10;;;;;;;;;;;3.90;93.20;;;;;;5030860;28;19916;-72
2021/04/22 05:53:36;;;;;;;;;;;3.90;95.10;;;;;;5049865;28;19947;-72
2021/04/22 05:56:04;;;;;;;;;;;3.90;92.80;;;;;;5048395;28;19917;-72
2021/04/22 05:58:30;;;;;;;;;;;3.90;93.10;;;;;;5048463;28;19916;-72
2021/04/22 06:00:55;;;;;;;;;;;3.90;94.20;;;;;;5030305;28;19931;-73
2021/04/22 06:03:23;;;;;;;;;;;3.90;93.50;;;;;;5028080;28;19924;-72
2021/04/22 06:05:50;;;;;;;;;;;3.90;93.10;;;;;;5049127;28;20015;-71
2021/04/22 06:08:16;;;;;;;;;;;4.00;92.80;;;;;;5049095;28;19929;-72
2021/04/22 06:10:44;;;;;;;;;;;3.90;92.40;;;;;;5048238;28;19926;-72
2021/04/22 06:13:13;;;;;;;;;;;4.00;93.20;;;;;;5031505;28;19970;-72
2021/04/22 06:15:41;;;;;;;;;;;4.00;92.00;;;;;;5048590;28;20293;-72
2021/04/22 06:18:07;;;;;;;;;;;3.90;90.80;;;;;;5048730;28;20000;-72
2021/04/22 06:20:34;;;;;;;;;;;3.90;91.20;;;;;;5048138;28;19927;-72
2021/04/22 06:23:00;;;;;;;;;;;3.90;92.50;;;;;;5049637;28;19912;-72
2021/04/22 06:25:25;;;;;;;;;;;4.00;92.30;;;;;;5048119;28;19940;-72
2021/04/22 06:27:52;;;;;;;;;;;4.00;92.40;;;;;;5047803;28;19921;-72
2021/04/22 06:30:17;;;;;;;;;;;4.10;93.40;;;;;;5047999;28;19930;-72
2021/04/22 06:32:43;;;;;;;;;;;4.00;91.80;;;;;;5048874;28;19921;-72
2021/04/22 06:35:09;;;;;;;;;;;4.10;91.30;;;;;;5031726;28;20286;-72
2021/04/22 06:37:37;;;;;;;;;;;4.10;91.60;;;;;;5046885;28;20500;-72
2021/04/22 06:40:09;;;;;;;;;;;4.10;92.30;;;;;;5048159;28;19916;-72
2021/04/22 06:42:37;;;;;;;;;;;4.20;91.30;;;;;;5047885;28;19920;-72
2021/04/22 06:45:05;;;;;;;;;;;4.30;91.80;;;;;;5030003;28;19916;-72
2021/04/22 06:47:30;;;;;;;;;;;4.30;92.60;;;;;;5048477;28;19951;-73
2021/04/22 06:49:56;;;;;;;;;;;4.40;91.80;;;;;;5047978;28;19920;-72
2021/04/22 06:52:24;;;;;;;;;;;4.50;90.60;;;;;;5047561;28;20342;-72
2021/04/22 06:54:52;;;;;;;;;;;4.60;90.80;;;;;;5047006;28;19956;-73
2021/04/22 06:57:19;;;;;;;;;;;4.70;91.10;;;;;;5048931;28;20448;-73
2021/04/22 06:59:45;;;;;;;;;;;4.70;88.50;;;;;;5030535;28;19947;-72
2021/04/22 07:02:13;;;;;;;;;;;4.80;91.30;;;;;;5047915;28;19921;-72
2021/04/22 07:04:40;;;;;;;;;;;4.80;90.90;;;;;;5049209;28;19921;-73
2021/04/22 07:07:07;;;;;;;;;;;4.80;89.10;;;;;;5048199;28;20373;-72
2021/04/22 07:09:34;;;;;;;;;;;4.80;87.40;;;;;;5015223;28;20841;-73
2021/04/22 07:12:02;;;;;;;;;;;4.90;88.70;;;;;;5047655;28;20020;-73
2021/04/22 07:14:27;;;;;;;;;;;5.10;87.00;;;;;;5029978;28;19920;-72
2021/04/22 07:16:55;;;;;;;;;;;5.10;85.20;;;;;;5048170;28;19932;-72
2021/04/22 07:19:20;;;;;;;;;;;5.20;87.80;;;;;;5029005;28;19927;-72
2021/04/22 07:21:46;;;;;;;;;;;5.20;86.90;;;;;;5034235;28;20298;-73
2021/04/22 07:24:12;;;;;;;;;;;5.30;86.40;;;;;;5046741;28;20251;-73
2021/04/22 07:26:37;;;;;;;;;;;5.30;85.10;;;;;;5029765;28;19931;-72
2021/04/22 07:29:03;;;;;;;;;;;5.40;83.10;;;;;;5046306;28;19931;-72
2021/04/22 07:31:31;;;;;;;;;;;5.50;83.70;;;;;;5030597;28;20436;-73
2021/04/22 07:33:56;;;;;;;;;;;5.50;85.10;;;;;;5046179;28;20405;-73
2021/04/22 07:36:24;;;;;;;;;;;5.60;83.30;;;;;;5027343;28;19926;-72
2021/04/22 07:38:50;;;;;;;;;;;5.50;80.50;;;;;;5047309;28;20788;-73
2021/04/22 07:41:15;;;;;;;;;;;5.70;82.90;;;;;;5028012;28;19925;-73
2021/04/22 07:43:43;;;;;;;;;;;5.70;79.60;;;;;;5047625;28;19923;-72
2021/04/22 07:46:09;;;;;;;;;;;5.70;77.30;;;;;;5046375;28;19921;-73
2021/04/22 07:48:34;;;;;;;;;;;5.80;79.60;;;;;;5048029;28;20440;-73
2021/04/22 07:51:00;;;;;;;;;;;6.00;81.50;;;;;;5012593;28;19950;-73
2021/04/22 07:53:25;;;;;;;;;;;6.20;79.70;;;;;;4999986;28;19916;-73
2021/04/22 07:55:51;;;;;;;;;;;6.50;80.50;;;;;;5029875;28;19921;-72
2021/04/22 07:58:21;;;;;;;;;;;6.30;74.20;;;;;;5029634;28;19916;-72
2021/04/22 08:00:47;;;;;;;;;;;6.40;77.00;;;;;;5046829;28;19948;-73
2021/04/22 08:03:14;;;;;;;;;;;6.50;76.50;;;;;;5029033;28;20473;-73
2021/04/22 08:05:39;;;;;;;;;;;6.60;76.70;;;;;;5019406;28;20015;-72
2021/04/22 08:08:08;;;;;;;;;;;6.80;79.30;;;;;;5005651;28;19937;-72
2021/04/22 08:10:34;;;;;;;;;;;6.80;73.80;;;;;;5021695;28;19917;-73
2021/04/22 08:13:02;;;;;;;;;;;6.90;72.50;;;;;;4991904;28;19916;-73
2021/04/22 08:15:28;;;;;;;;;;;7.10;76.20;;;;;;5022166;28;19921;-72
2021/04/22 08:17:53;;;;;;;;;;;7.40;79.50;;;;;;5005864;28;21922;-73
2021/04/22 08:20:24;;;;;;;;;;;7.70;76.40;;;;;;5005938;28;19925;-72
2021/04/22 08:22:54;;;;;;;;;;;7.90;76.10;;;;;;5007024;28;19917;-73
2021/04/22 08:25:26;;;;;;;;;;;7.90;71.10;;;;;;5023312;28;19924;-72
2021/04/22 08:27:52;;;;;;;;;;;8.10;71.70;;;;;;5006286;28;20546;-73
2021/04/22 08:30:18;;;;;;;;;;;8.00;73.50;;;;;;5007020;28;19991;-75
2021/04/22 08:32:46;;;;;;;;;;;8.30;73.00;;;;;;5007558;28;19961;-75
2021/04/22 08:35:12;;;;;;;;;;;8.40;76.40;;;;;;5007545;28;19914;-72
2021/04/22 08:37:38;;;;;;;;;;;8.50;68.90;;;;;;5007355;28;19920;-73
2021/04/22 08:40:05;;;;;;;;;;;8.70;73.50;;;;;;5004858;28;19929;-73
2021/04/22 08:42:30;;;;;;;;;;;8.80;70.00;;;;;;5006097;28;19928;-72
2021/04/22 08:44:59;;;;;;;;;;;8.80;68.30;;;;;;5005216;28;19921;-73
2021/04/22 08:47:27;;;;;;;;;;;8.90;69.10;;;;;;5007886;28;20551;-71
2021/04/22 08:49:53;;;;;;;;;;;9.00;70.30;;;;;;5021322;28;19982;-73
2021/04/22 08:52:19;;;;;;;;;;;8.90;66.60;;;;;;5005258;28;20007;-70
2021/04/22 08:54:44;;;;;;;;;;;8.80;62.70;;;;;;5004842;28;19929;-73
2021/04/22 08:57:10;;;;;;;;;;;8.60;64.00;;;;;;5021959;28;19922;-72
2021/04/22 08:59:35;;;;;;;;;;;8.60;63.20;;;;;;5005570;28;19928;-72
2021/04/22 09:02:03;;;;;;;;;;;8.70;66.80;;;;;;5004176;28;19934;-70
2021/04/22 09:04:29;;;;;;;;;;;8.70;68.40;;;;;;5005701;28;19931;-72
2021/04/22 09:06:55;;;;;;;;;;;8.80;66.40;;;;;;5024227;28;19929;-73
2021/04/22 09:09:20;;;;;;;;;;;8.90;64.20;;;;;;5028303;28;19916;-73
2021/04/22 09:11:48;;;;;;;;;;;9.00;66.50;;;;;;5045761;28;19944;-71
2021/04/22 09:14:20;;;;;;;;;;;9.20;67.30;;;;;;4999557;28;19920;-73
2021/04/22 09:16:45;;;;;;;;;;;9.30;63.00;;;;;;5046787;28;19920;-73
2021/04/22 09:19:15;;;;;;;;;;;9.30;63.30;;;;;;5030314;28;19987;-73
2021/04/22 09:21:43;;;;;;;;;;;9.30;62.30;;;;;;5049285;28;19921;-75
2021/04/22 09:24:12;;;;;;;;;;;9.40;67.30;;;;;;5050342;28;19917;-75
2021/04/22 09:26:42;;;;;;;;;;;9.30;63.00;;;;;;5049231;28;19966;-72
2021/04/22 09:29:10;;;;;;;;;;;9.30;61.60;;;;;;5031094;28;19917;-76
2021/04/22 09:31:36;;;;;;;;;;;9.30;62.00;;;;;;5031554;28;19917;-78
2021/04/22 09:34:07;;;;;;;;;;;9.40;66.40;;;;;;5015699;28;19916;-71
2021/04/22 09:36:43;;;;;;;;;;;9.70;65.50;;;;;;5046125;28;19931;-73
2021/04/22 09:39:09;;;;;;;;;;;9.90;64.30;;;;;;5028940;28;19939;-73
2021/04/22 09:41:39;;;;;;;;;;;10.10;61.50;;;;;;5047098;28;19921;-73
2021/04/22 09:44:08;;;;;;;;;;;10.50;67.60;;;;;;5048379;28;21873;-73
2021/04/22 09:46:34;;;;;;;;;;;10.70;63.60;;;;;;5047249;28;19917;-73
2021/04/22 09:49:00;;;;;;;;;;;10.70;59.60;;;;;;5047963;28;19931;-71
2021/04/22 09:51:28;;;;;;;;;;;10.70;63.00;;;;;;5029803;28;19920;-72
2021/04/22 09:54:08;;;;;;;;;;;10.80;62.20;;;;;;5028642;28;19932;-73
2021/04/22 09:56:40;;;;;;;;;;;10.60;59.40;;;;;;5047381;28;19924;-73
2021/04/22 09:59:10;;;;;;;;;;;10.80;61.80;;;;;;5047252;28;19920;-73
2021/04/22 10:01:35;;;;;;;;;;;10.70;60.40;;;;;;5047522;28;19921;-72
2021/04/22 10:04:01;;;;;;;;;;;10.80;62.60;;;;;;5028340;28;19966;-73
2021/04/22 10:06:38;;;;;;;;;;;10.70;60.40;;;;;;5047955;28;19959;-73
2021/04/22 10:09:06;;;;;;;;;;;10.70;61.60;;;;;;5047612;28;19921;-72
2021/04/22 10:11:45;;;;;;;;;;;10.70;59.30;;;;;;5047629;28;20010;-72
2021/04/22 10:14:11;;;;;;;;;;;10.90;61.20;;;;;;5015304;28;19916;-72
2021/04/22 10:16:36;;;;;;;;;;;11.20;64.70;;;;;;5047592;28;20289;-72
2021/04/22 10:19:02;;;;;;;;;;;11.20;60.50;;;;;;5048226;28;21660;-72
2021/04/22 10:21:30;;;;;;;;;;;11.40;58.30;;;;;;5047835;28;19956;-72
2021/04/22 10:24:04;;;;;;;;;;;11.60;61.30;;;;;;5019430;28;19927;-72
2021/04/22 10:26:33;;;;;;;;;;;11.30;55.30;;;;;;5028120;28;19921;-73
2021/04/22 10:28:58;;;;;;;;;;;11.20;56.20;;;;;;5045372;28;19952;-72
2021/04/22 10:31:26;;;;;;;;;;;11.40;58.80;;;;;;5028691;28;20460;-72
2021/04/22 10:33:52;;;;;;;;;;;11.60;58.30;;;;;;5047384;28;20078;-73
2021/04/22 10:36:23;;;;;;;;;;;11.20;54.10;;;;;;5029528;28;19917;-73
2021/04/22 10:38:52;;;;;;;;;;;11.30;53.70;;;;;;5028457;28;19921;-73
2021/04/22 10:41:18;;;;;;;;;;;11.20;55.30;;;;;;5046406;28;19963;-73
2021/04/22 10:43:43;;;;;;;;;;;11.50;54.90;;;;;;5028027;28;19928;-72
2021/04/22 10:46:11;;;;;;;;;;;11.70;56.30;;;;;;5029294;28;19921;-72
2021/04/22 10:48:37;;;;;;;;;;;11.60;57.90;;;;;;5046308;28;20361;-73
2021/04/22 10:51:03;;;;;;;;;;;11.80;57.60;;;;;;5046515;28;19927;-72
2021/04/22 10:53:28;;;;;;;;;;;11.70;51.40;;;;;;5028629;28;19920;-72
2021/04/22 10:55:54;;;;;;;;;;;12.00;52.80;;;;;;5028866;28;19932;-72
2021/04/22 10:58:21;;;;;;;;;;;12.20;57.50;;;;;;5028280;28;19975;-72
2021/04/22 11:00:59;;;;;;;;;;;12.30;57.20;;;;;;5045523;28;20819;-73
2021/04/22 11:03:24;;;;;;;;;;;12.40;55.70;;;;;;5047150;28;19932;-72
2021/04/22 11:05:54;;;;;;;;;;;12.60;56.90;;;;;;5045697;28;19916;-71
2021/04/22 11:08:28;;;;;;;;;;;12.30;51.50;;;;;;5028663;28;19935;-73
2021/04/22 11:10:55;;;;;;;;;;;12.50;53.20;;;;;;5028212;28;20174;-71
2021/04/22 11:13:25;;;;;;;;;;;12.50;49.70;;;;;;5028164;28;20443;-72
2021/04/22 11:15:54;;;;;;;;;;;12.60;54.10;;;;;;5026284;28;19916;-71
2021/04/22 11:18:21;;;;;;;;;;;12.70;51.80;;;;;;5045556;28;19921;-72
2021/04/22 11:20:47;;;;;;;;;;;12.50;49.00;;;;;;5026457;28;20450;-73
2021/04/22 11:23:13;;;;;;;;;;;12.50;52.50;;;;;;5046033;28;19928;-74
2021/04/22 11:25:45;;;;;;;;;;;12.50;51.80;;;;;;5045909;28;19917;-73
2021/04/22 11:28:11;;;;;;;;;;;12.50;49.60;;;;;;5045382;28;19935;-72
2021/04/22 11:30:36;;;;;;;;;;;12.70;50.50;;;;;;5045576;28;19920;-73
2021/04/22 11:33:02;;;;;;;;;;;12.90;56.40;;;;;;5045678;28;19977;-71
2021/04/22 11:35:28;;;;;;;;;;;13.10;50.40;;;;;;5027580;28;19927;-71
2021/04/22 11:37:54;;;;;;;;;;;12.90;48.50;;;;;;5045668;28;19931;-73
2021/04/22 11:40:27;;;;;;;;;;;13.10;48.40;;;;;;5046867;28;19920;-73
2021/04/22 11:42:54;;;;;;;;;;;13.20;51.20;;;;;;5044837;28;19949;-72
2021/04/22 11:45:23;;;;;;;;;;;13.20;46.80;;;;;;5045210;28;19927;-71
2021/04/22 11:47:49;;;;;;;;;;;13.30;49.60;;;;;;5025887;28;19921;-76
2021/04/22 11:50:16;;;;;;;;;;;13.20;48.40;;;;;;5029026;28;19916;-75
2021/04/22 11:52:48;;;;;;;;;;;13.30;51.60;;;;;;5028997;28;19920;-71
2021/04/22 11:55:17;;;;;;;;;;;13.50;48.60;;;;;;4696550;28;9999623;-72
2021/04/22 11:57:51;;;;;;;;;;;13.50;48.10;;;;;;5043621;28;19916;-73
2021/04/22 12:00:17;;;;;;;;;;;13.60;48.10;;;;;;5043591;28;19931;-71
2021/04/22 12:02:42;;;;;;;;;;;13.50;46.30;;;;;;5025409;28;19916;-72
2021/04/22 12:05:08;;;;;;;;;;;13.90;50.30;;;;;;5025808;28;20350;-71
2021/04/22 12:07:33;;;;;;;;;;;14.20;48.30;;;;;;4695076;28;10000545;-70
2021/04/22 12:09:59;;;;;;;;;;;14.40;47.30;;;;;;5025674;28;20362;-73
2021/04/22 12:12:30;;;;;;;;;;;14.10;44.00;;;;;;5043418;28;20468;-70
2021/04/22 12:14:56;;;;;;;;;;;14.30;46.20;;;;;;5026418;28;20685;-72
2021/04/22 12:17:26;;;;;;;;;;;14.40;47.30;;;;;;5044432;28;19927;-72
2021/04/22 12:19:55;;;;;;;;;;;14.70;46.60;;;;;;5043763;28;19946;-72
2021/04/22 12:22:25;;;;;;;;;;;14.70;43.90;;;;;;5025603;28;19932;-70
2021/04/22 12:24:53;;;;;;;;;;;14.60;44.20;;;;;;5045729;28;19974;-73
2021/04/22 12:27:25;;;;;;;;;;;14.60;43.40;;;;;;5025043;28;19924;-72
2021/04/22 12:29:51;;;;;;;;;;;14.50;42.10;;;;;;5044699;28;19925;-72
2021/04/22 12:32:16;;;;;;;;;;;14.90;44.10;;;;;;5045352;28;19924;-70
2021/04/22 12:34:42;;;;;;;;;;;15.10;45.90;;;;;;5045192;28;20011;-70
2021/04/22 12:37:10;;;;;;;;;;;14.90;41.40;;;;;;5044326;28;19998;-70
2021/04/22 12:39:40;;;;;;;;;;;14.80;40.90;;;;;;5045737;28;19931;-73
2021/04/22 12:42:19;;;;;;;;;;;15.20;42.70;;;;;;5043172;28;19931;-73
2021/04/22 12:44:57;;;;;;;;;;;15.20;40.70;;;;;;5044246;28;19924;-70
2021/04/22 12:47:33;;;;;;;;;;;14.90;38.40;;;;;;5044780;28;21324;-72
2021/04/22 12:49:58;;;;;;;;;;;14.90;37.80;;;;;;5026182;28;20583;-71
2021/04/22 12:52:26;;;;;;;;;;;15.40;38.60;;;;;;5049437;28;19920;-70
2021/04/22 12:54:56;;;;;;;;;;;15.40;40.30;;;;;;5046652;28;20257;-71
2021/04/22 12:57:21;;;;;;;;;;;15.60;42.70;;;;;;5031187;28;19931;-71
2021/04/22 12:59:47;;;;;;;;;;;15.80;42.10;;;;;;5048735;28;19916;-71
2021/04/22 13:02:13;;;;;;;;;;;16.20;41.80;;;;;;5032015;28;19920;-70
2021/04/22 13:04:39;;;;;;;;;;;16.80;45.80;;;;;;5048498;28;19920;-70
2021/04/22 13:07:05;;;;;;;;;;;16.60;39.50;;;;;;5047644;28;20277;-70
2021/04/22 13:09:30;;;;;;;;;;;16.10;37.90;;;;;;5031046;28;19951;-71
2021/04/22 13:11:56;;;;;;;;;;;16.60;41.70;;;;;;5031531;28;19921;-71
2021/04/22 13:14:24;;;;;;;;;;;16.10;41.20;;;;;;5030243;28;20360;-71
2021/04/22 13:16:53;;;;;;;;;;;15.80;42.20;;;;;;5030779;28;20286;-71
2021/04/22 13:19:22;;;;;;;;;;;15.60;43.50;;;;;;5029920;28;19921;-70
2021/04/22 13:21:52;;;;;;;;;;;15.50;40.30;;;;;;5030304;28;19917;-71
2021/04/22 13:24:18;;;;;;;;;;;16.00;44.10;;;;;;5048673;28;19971;-71
2021/04/22 13:26:55;;;;;;;;;;;16.30;48.40;;;;;;5048111;28;19955;-71
2021/04/22 13:29:21;;;;;;;;;;;16.20;43.80;;;;;;5049290;28;19917;-71
2021/04/22 13:31:53;;;;;;;;;;;16.00;40.70;;;;;;5047933;28;19912;-71
2021/04/22 13:34:23;;;;;;;;;;;15.90;43.90;;;;;;5048408;28;19970;-71
2021/04/22 13:36:49;;;;;;;;;;;16.20;40.50;;;;;;5014135;28;19955;-72
2021/04/22 13:39:19;;;;;;;;;;;16.00;43.50;;;;;;5048374;28;20011;-72
2021/04/22 13:41:44;;;;;;;;;;;15.50;40.90;;;;;;5012756;28;20327;-71
2021/04/22 13:44:15;;;;;;;;;;;15.50;43.30;;;;;;5047456;28;19947;-72
2021/04/22 13:46:41;;;;;;;;;;;15.30;43.90;;;;;;5029259;28;20012;-73
2021/04/22 13:49:11;;;;;;;;;;;15.30;41.10;;;;;;5047734;28;20006;-72
2021/04/22 13:51:37;;;;;;;;;;;15.00;42.60;;;;;;5047847;28;20563;-72
2021/04/22 13:54:02;;;;;;;;;;;15.00;45.30;;;;;;5048127;28;19927;-72
2021/04/22 13:56:28;;;;;;;;;;;15.00;45.00;;;;;;5048309;28;19929;-73
2021/04/22 13:58:53;;;;;;;;;;;15.20;47.60;;;;;;5030109;28;19927;-73
2021/04/22 14:01:20;;;;;;;;;;;15.30;44.80;;;;;;5048423;28;20038;-73
2021/04/22 14:03:45;;;;;;;;;;;15.20;44.10;;;;;;5027555;28;19950;-72
2021/04/22 14:06:11;;;;;;;;;;;15.20;44.70;;;;;;5047849;28;19924;-72
2021/04/22 14:08:36;;;;;;;;;;;15.40;43.20;;;;;;5016263;28;19929;-73
2021/04/22 14:11:11;;;;;;;;;;;14.90;42.60;;;;;;5048651;28;19986;-72
2021/04/22 14:13:39;;;;;;;;;;;15.10;45.40;;;;;;5047110;28;19920;-72
2021/04/22 14:16:05;;;;;;;;;;;14.90;40.90;;;;;;5030182;28;20020;-72
2021/04/22 14:18:33;;;;;;;;;;;15.00;43.70;;;;;;5029498;28;19916;-72
2021/04/22 14:20:58;;;;;;;;;;;14.90;42.70;;;;;;5047220;28;19921;-71
2021/04/22 14:23:27;;;;;;;;;;;14.70;41.50;;;;;;5013065;28;19916;-72
2021/04/22 14:25:52;;;;;;;;;;;14.50;42.90;;;;;;5047992;28;19931;-72